sensor_id;sensor_type;location;lat;lon;timestamp;P1;durP1;ratioP1;P2;durP2;ratioP2
19280;SDS011;9774;52.034;5.342;2022-11-23T00:01:30;5.90;;;4.20;;
19280;SDS011;9774;52.034;5.342;2022-11-23T00:03:59;4.85;;;4.10;;
19280;SDS011;9774;52.034;5.342;2022-11-23T00:06:28;6.43;;;4.47;;
19280;SDS011;9774;52.034;5.342;2022-11-23T00:08:57;5.28;;;4.13;;
19280;SDS011;9774;52.034;5.342;2022-11-23T00:11:25;5.18;;;3.70;;
19280;SDS011;9774;52.034;5.342;2022-11-23T00:13:53;4.90;;;4.07;;
19280;SDS011;9774;52.034;5.342;2022-11-23T00:16:21;5.82;;;4.68;;
19280;SDS011;9774;52.034;5.342;2022-11-23T00:18:51;6.15;;;4.25;;
19280;SDS011;9774;52.034;5.342;2022-11-23T00:21:19;5.20;;;4.50;;
19280;SDS011;9774;52.034;5.342;2022-11-23T00:23:48;6.60;;;5.32;;
19280;SDS011;9774;52.034;5.342;2022-11-23T00:26:16;17.33;;;4.50;;
19280;SDS011;9774;52.034;5.342;2022-11-23T00:28:44;7.65;;;5.20;;
19280;SDS011;9774;52.034;5.342;2022-11-23T00:31:12;8.02;;;5.30;;
19280;SDS011;9774;52.034;5.342;2022-11-23T00:33:41;7.75;;;5.35;;
19280;SDS011;9774;52.034;5.342;2022-11-23T00:36:09;7.03;;;5.15;;
19280;SDS011;9774;52.034;5.342;2022-11-23T00:38:38;6.22;;;4.30;;
19280;SDS011;9774;52.034;5.342;2022-11-23T00:41:07;5.75;;;5.20;;
19280;SDS011;9774;52.034;5.342;2022-11-23T00:43:36;4.28;;;3.83;;
19280;SDS011;9774;52.034;5.342;2022-11-23T00:46:04;6.28;;;5.03;;
19280;SDS011;9774;52.034;5.342;2022-11-23T00:48:32;8.52;;;4.32;;
19280;SDS011;9774;52.034;5.342;2022-11-23T00:51:00;6.07;;;4.07;;
19280;SDS011;9774;52.034;5.342;2022-11-23T00:53:28;5.55;;;4.50;;
19280;SDS011;9774;52.034;5.342;2022-11-23T00:55:56;7.28;;;4.18;;
19280;SDS011;9774;52.034;5.342;2022-11-23T00:58:23;4.88;;;4.15;;
19280;SDS011;9774;52.034;5.342;2022-11-23T01:01:00;6.93;;;4.03;;
19280;SDS011;9774;52.034;5.342;2022-11-23T01:03:29;6.50;;;4.05;;
19280;SDS011;9774;52.034;5.342;2022-11-23T01:06:00;7.90;;;4.25;;
19280;SDS011;9774;52.034;5.342;2022-11-23T01:08:29;5.63;;;3.85;;
19280;SDS011;9774;52.034;5.342;2022-11-23T01:10:59;6.05;;;3.83;;
19280;SDS011;9774;52.034;5.342;2022-11-23T01:13:28;4.70;;;3.72;;
19280;SDS011;9774;52.034;5.342;2022-11-23T01:15:55;6.30;;;3.85;;
19280;SDS011;9774;52.034;5.342;2022-11-23T01:18:25;6.90;;;4.60;;
19280;SDS011;9774;52.034;5.342;2022-11-23T01:20:53;5.88;;;4.00;;
19280;SDS011;9774;52.034;5.342;2022-11-23T01:23:20;4.82;;;3.42;;
19280;SDS011;9774;52.034;5.342;2022-11-23T01:25:47;7.78;;;4.18;;
19280;SDS011;9774;52.034;5.342;2022-11-23T01:28:15;7.47;;;4.60;;
19280;SDS011;9774;52.034;5.342;2022-11-23T01:30:42;5.22;;;3.53;;
19280;SDS011;9774;52.034;5.342;2022-11-23T01:33:09;8.00;;;4.03;;
19280;SDS011;9774;52.034;5.342;2022-11-23T01:35:38;7.15;;;3.85;;
19280;SDS011;9774;52.034;5.342;2022-11-23T01:38:06;9.80;;;3.83;;
19280;SDS011;9774;52.034;5.342;2022-11-23T01:40:38;6.88;;;4.05;;
19280;SDS011;9774;52.034;5.342;2022-11-23T01:43:09;5.82;;;3.78;;
19280;SDS011;9774;52.034;5.342;2022-11-23T01:45:40;6.72;;;3.97;;
19280;SDS011;9774;52.034;5.342;2022-11-23T01:48:13;8.20;;;4.03;;
19280;SDS011;9774;52.034;5.342;2022-11-23T01:50:45;5.28;;;2.90;;
19280;SDS011;9774;52.034;5.342;2022-11-23T01:53:17;6.85;;;3.17;;
19280;SDS011;9774;52.034;5.342;2022-11-23T01:55:45;5.35;;;3.35;;
19280;SDS011;9774;52.034;5.342;2022-11-23T01:58:15;7.32;;;3.70;;
19280;SDS011;9774;52.034;5.342;2022-11-23T02:00:45;6.15;;;3.58;;
19280;SDS011;9774;52.034;5.342;2022-11-23T02:03:13;4.07;;;3.00;;
19280;SDS011;9774;52.034;5.342;2022-11-23T02:05:43;5.90;;;3.22;;
19280;SDS011;9774;52.034;5.342;2022-11-23T02:08:14;6.55;;;2.45;;
19280;SDS011;9774;52.034;5.342;2022-11-23T02:10:44;7.53;;;3.42;;
19280;SDS011;9774;52.034;5.342;2022-11-23T02:13:12;5.30;;;3.33;;
19280;SDS011;9774;52.034;5.342;2022-11-23T02:15:40;6.63;;;3.03;;
19280;SDS011;9774;52.034;5.342;2022-11-23T02:18:10;5.25;;;3.28;;
19280;SDS011;9774;52.034;5.342;2022-11-23T02:20:41;4.38;;;2.95;;
19280;SDS011;9774;52.034;5.342;2022-11-23T02:23:13;4.82;;;3.30;;
19280;SDS011;9774;52.034;5.342;2022-11-23T02:25:51;6.32;;;3.22;;
19280;SDS011;9774;52.034;5.342;2022-11-23T02:28:25;3.50;;;2.40;;
19280;SDS011;9774;52.034;5.342;2022-11-23T02:30:57;3.92;;;2.72;;
19280;SDS011;9774;52.034;5.342;2022-11-23T02:33:25;6.68;;;2.90;;
19280;SDS011;9774;52.034;5.342;2022-11-23T02:35:53;8.52;;;2.67;;
19280;SDS011;9774;52.034;5.342;2022-11-23T02:38:21;5.10;;;3.17;;
19280;SDS011;9774;52.034;5.342;2022-11-23T02:40:52;6.32;;;3.45;;
19280;SDS011;9774;52.034;5.342;2022-11-23T02:43:19;6.43;;;3.50;;
19280;SDS011;9774;52.034;5.342;2022-11-23T02:45:47;6.70;;;3.60;;
19280;SDS011;9774;52.034;5.342;2022-11-23T02:48:17;6.20;;;3.13;;
19280;SDS011;9774;52.034;5.342;2022-11-23T02:50:45;4.97;;;3.65;;
19280;SDS011;9774;52.034;5.342;2022-11-23T02:53:12;4.80;;;3.33;;
19280;SDS011;9774;52.034;5.342;2022-11-23T02:55:40;8.43;;;3.67;;
19280;SDS011;9774;52.034;5.342;2022-11-23T02:58:09;5.28;;;3.50;;
19280;SDS011;9774;52.034;5.342;2022-11-23T03:00:36;6.45;;;3.30;;
19280;SDS011;9774;52.034;5.342;2022-11-23T03:03:04;6.80;;;3.35;;
19280;SDS011;9774;52.034;5.342;2022-11-23T03:05:31;4.95;;;3.20;;
19280;SDS011;9774;52.034;5.342;2022-11-23T03:07:59;4.82;;;3.58;;
19280;SDS011;9774;52.034;5.342;2022-11-23T03:10:26;11.07;;;3.72;;
19280;SDS011;9774;52.034;5.342;2022-11-23T03:12:54;4.22;;;3.15;;
19280;SDS011;9774;52.034;5.342;2022-11-23T03:15:23;6.40;;;3.30;;
19280;SDS011;9774;52.034;5.342;2022-11-23T03:17:50;6.97;;;2.85;;
19280;SDS011;9774;52.034;5.342;2022-11-23T03:20:18;8.88;;;3.90;;
19280;SDS011;9774;52.034;5.342;2022-11-23T03:22:45;4.20;;;3.30;;
19280;SDS011;9774;52.034;5.342;2022-11-23T03:25:13;4.35;;;3.55;;
19280;SDS011;9774;52.034;5.342;2022-11-23T03:27:40;5.80;;;3.08;;
19280;SDS011;9774;52.034;5.342;2022-11-23T03:30:08;5.07;;;3.60;;
19280;SDS011;9774;52.034;5.342;2022-11-23T03:32:37;5.60;;;2.97;;
19280;SDS011;9774;52.034;5.342;2022-11-23T03:35:04;5.70;;;3.67;;
19280;SDS011;9774;52.034;5.342;2022-11-23T03:37:33;7.68;;;3.53;;
19280;SDS011;9774;52.034;5.342;2022-11-23T03:40:00;5.25;;;3.10;;
19280;SDS011;9774;52.034;5.342;2022-11-23T03:42:27;5.18;;;2.95;;
19280;SDS011;9774;52.034;5.342;2022-11-23T03:44:54;5.38;;;2.30;;
19280;SDS011;9774;52.034;5.342;2022-11-23T03:47:22;5.47;;;2.45;;
19280;SDS011;9774;52.034;5.342;2022-11-23T03:49:50;6.82;;;2.45;;
19280;SDS011;9774;52.034;5.342;2022-11-23T03:52:18;5.88;;;2.72;;
19280;SDS011;9774;52.034;5.342;2022-11-23T03:54:45;5.28;;;2.78;;
19280;SDS011;9774;52.034;5.342;2022-11-23T03:57:12;3.97;;;2.45;;
19280;SDS011;9774;52.034;5.342;2022-11-23T03:59:39;3.28;;;1.98;;
19280;SDS011;9774;52.034;5.342;2022-11-23T04:02:07;2.95;;;2.28;;
19280;SDS011;9774;52.034;5.342;2022-11-23T04:04:35;4.70;;;2.97;;
19280;SDS011;9774;52.034;5.342;2022-11-23T04:07:04;3.30;;;2.22;;
19280;SDS011;9774;52.034;5.342;2022-11-23T04:09:31;5.93;;;2.47;;
19280;SDS011;9774;52.034;5.342;2022-11-23T04:11:59;4.38;;;2.53;;
19280;SDS011;9774;52.034;5.342;2022-11-23T04:14:26;6.00;;;2.75;;
19280;SDS011;9774;52.034;5.342;2022-11-23T04:16:53;3.20;;;2.20;;
19280;SDS011;9774;52.034;5.342;2022-11-23T04:19:20;5.82;;;2.58;;
19280;SDS011;9774;52.034;5.342;2022-11-23T04:21:48;6.45;;;2.58;;
19280;SDS011;9774;52.034;5.342;2022-11-23T04:24:16;3.60;;;2.28;;
19280;SDS011;9774;52.034;5.342;2022-11-23T04:26:44;3.78;;;1.95;;
19280;SDS011;9774;52.034;5.342;2022-11-23T04:29:11;4.55;;;2.35;;
19280;SDS011;9774;52.034;5.342;2022-11-23T04:31:38;3.55;;;2.22;;
19280;SDS011;9774;52.034;5.342;2022-11-23T04:34:05;3.70;;;2.10;;
19280;SDS011;9774;52.034;5.342;2022-11-23T04:36:33;5.10;;;2.50;;
19280;SDS011;9774;52.034;5.342;2022-11-23T04:39:00;4.65;;;2.33;;
19280;SDS011;9774;52.034;5.342;2022-11-23T04:41:29;4.70;;;2.50;;
19280;SDS011;9774;52.034;5.342;2022-11-23T04:43:56;3.10;;;2.25;;
19280;SDS011;9774;52.034;5.342;2022-11-23T04:46:24;4.95;;;2.40;;
19280;SDS011;9774;52.034;5.342;2022-11-23T04:48:51;6.70;;;2.53;;
19280;SDS011;9774;52.034;5.342;2022-11-23T04:51:18;6.25;;;2.95;;
19280;SDS011;9774;52.034;5.342;2022-11-23T04:53:46;4.15;;;2.53;;
19280;SDS011;9774;52.034;5.342;2022-11-23T04:56:13;4.75;;;2.13;;
19280;SDS011;9774;52.034;5.342;2022-11-23T04:58:42;5.68;;;2.38;;
19280;SDS011;9774;52.034;5.342;2022-11-23T05:01:09;4.90;;;2.55;;
19280;SDS011;9774;52.034;5.342;2022-11-23T05:03:37;8.13;;;3.00;;
19280;SDS011;9774;52.034;5.342;2022-11-23T05:06:04;4.95;;;2.03;;
19280;SDS011;9774;52.034;5.342;2022-11-23T05:08:32;6.43;;;2.22;;
19280;SDS011;9774;52.034;5.342;2022-11-23T05:10:59;4.80;;;1.95;;
19280;SDS011;9774;52.034;5.342;2022-11-23T05:13:26;6.72;;;2.05;;
19280;SDS011;9774;52.034;5.342;2022-11-23T05:15:55;2.67;;;1.90;;
19280;SDS011;9774;52.034;5.342;2022-11-23T05:18:23;4.63;;;1.70;;
19280;SDS011;9774;52.034;5.342;2022-11-23T05:20:50;3.08;;;1.77;;
19280;SDS011;9774;52.034;5.342;2022-11-23T05:23:18;5.10;;;2.28;;
19280;SDS011;9774;52.034;5.342;2022-11-23T05:25:45;7.75;;;2.25;;
19280;SDS011;9774;52.034;5.342;2022-11-23T05:28:14;4.30;;;1.65;;
19280;SDS011;9774;52.034;5.342;2022-11-23T05:30:43;3.95;;;1.77;;
19280;SDS011;9774;52.034;5.342;2022-11-23T05:33:12;5.68;;;1.80;;
19280;SDS011;9774;52.034;5.342;2022-11-23T05:35:39;3.28;;;1.58;;
19280;SDS011;9774;52.034;5.342;2022-11-23T05:38:07;4.43;;;1.92;;
19280;SDS011;9774;52.034;5.342;2022-11-23T05:40:34;5.38;;;1.63;;
19280;SDS011;9774;52.034;5.342;2022-11-23T05:43:01;5.75;;;2.30;;
19280;SDS011;9774;52.034;5.342;2022-11-23T05:45:30;4.03;;;1.80;;
19280;SDS011;9774;52.034;5.342;2022-11-23T05:47:57;4.68;;;2.38;;
19280;SDS011;9774;52.034;5.342;2022-11-23T05:50:27;5.07;;;2.15;;
19280;SDS011;9774;52.034;5.342;2022-11-23T05:52:55;6.38;;;2.45;;
19280;SDS011;9774;52.034;5.342;2022-11-23T05:55:22;4.47;;;2.10;;
19280;SDS011;9774;52.034;5.342;2022-11-23T05:57:50;5.47;;;1.67;;
19280;SDS011;9774;52.034;5.342;2022-11-23T06:00:17;4.57;;;1.90;;
19280;SDS011;9774;52.034;5.342;2022-11-23T06:02:45;6.28;;;2.10;;
19280;SDS011;9774;52.034;5.342;2022-11-23T06:05:12;4.15;;;2.03;;
19280;SDS011;9774;52.034;5.342;2022-11-23T06:07:41;7.47;;;2.38;;
19280;SDS011;9774;52.034;5.342;2022-11-23T06:10:10;7.72;;;2.58;;
19280;SDS011;9774;52.034;5.342;2022-11-23T06:12:37;3.92;;;1.85;;
19280;SDS011;9774;52.034;5.342;2022-11-23T06:15:05;3.05;;;2.00;;
19280;SDS011;9774;52.034;5.342;2022-11-23T06:17:34;7.40;;;2.15;;
19280;SDS011;9774;52.034;5.342;2022-11-23T06:20:02;4.25;;;1.85;;
19280;SDS011;9774;52.034;5.342;2022-11-23T06:22:30;8.02;;;2.03;;
19280;SDS011;9774;52.034;5.342;2022-11-23T06:24:59;3.17;;;1.45;;
19280;SDS011;9774;52.034;5.342;2022-11-23T06:27:26;4.05;;;1.80;;
19280;SDS011;9774;52.034;5.342;2022-11-23T06:29:54;2.33;;;0.95;;
19280;SDS011;9774;52.034;5.342;2022-11-23T06:32:21;3.10;;;1.55;;
19280;SDS011;9774;52.034;5.342;2022-11-23T06:34:48;5.35;;;1.40;;
19280;SDS011;9774;52.034;5.342;2022-11-23T06:37:15;4.75;;;2.00;;
19280;SDS011;9774;52.034;5.342;2022-11-23T06:39:43;3.85;;;1.50;;
19280;SDS011;9774;52.034;5.342;2022-11-23T06:42:11;5.38;;;1.30;;
19280;SDS011;9774;52.034;5.342;2022-11-23T06:44:39;4.43;;;1.13;;
19280;SDS011;9774;52.034;5.342;2022-11-23T06:47:06;5.57;;;1.15;;
19280;SDS011;9774;52.034;5.342;2022-11-23T06:49:33;4.35;;;1.10;;
19280;SDS011;9774;52.034;5.342;2022-11-23T06:52:00;5.72;;;1.80;;
19280;SDS011;9774;52.034;5.342;2022-11-23T06:54:28;4.13;;;1.30;;
19280;SDS011;9774;52.034;5.342;2022-11-23T06:56:55;6.47;;;1.40;;
19280;SDS011;9774;52.034;5.342;2022-11-23T06:59:24;4.75;;;1.50;;
19280;SDS011;9774;52.034;5.342;2022-11-23T07:01:52;7.35;;;1.73;;
19280;SDS011;9774;52.034;5.342;2022-11-23T07:04:19;6.38;;;1.60;;
19280;SDS011;9774;52.034;5.342;2022-11-23T07:06:46;2.75;;;0.90;;
19280;SDS011;9774;52.034;5.342;2022-11-23T07:09:14;2.65;;;1.10;;
19280;SDS011;9774;52.034;5.342;2022-11-23T07:11:41;6.63;;;1.40;;
19280;SDS011;9774;52.034;5.342;2022-11-23T07:14:08;5.53;;;1.20;;
19280;SDS011;9774;52.034;5.342;2022-11-23T07:16:37;5.32;;;1.17;;
19280;SDS011;9774;52.034;5.342;2022-11-23T07:19:04;6.85;;;1.40;;
19280;SDS011;9774;52.034;5.342;2022-11-23T07:21:31;4.47;;;1.00;;
19280;SDS011;9774;52.034;5.342;2022-11-23T07:23:59;4.63;;;1.40;;
19280;SDS011;9774;52.034;5.342;2022-11-23T07:26:26;3.65;;;1.33;;
19280;SDS011;9774;52.034;5.342;2022-11-23T07:28:53;3.15;;;1.38;;
19280;SDS011;9774;52.034;5.342;2022-11-23T07:31:21;7.97;;;1.70;;
19280;SDS011;9774;52.034;5.342;2022-11-23T07:33:49;2.78;;;1.02;;
19280;SDS011;9774;52.034;5.342;2022-11-23T07:36:17;6.10;;;1.23;;
19280;SDS011;9774;52.034;5.342;2022-11-23T07:38:44;3.47;;;0.98;;
19280;SDS011;9774;52.034;5.342;2022-11-23T07:41:12;3.95;;;0.90;;
19280;SDS011;9774;52.034;5.342;2022-11-23T07:43:39;3.90;;;1.27;;
19280;SDS011;9774;52.034;5.342;2022-11-23T07:46:06;2.92;;;1.20;;
19280;SDS011;9774;52.034;5.342;2022-11-23T07:48:33;5.55;;;1.45;;
19280;SDS011;9774;52.034;5.342;2022-11-23T07:51:02;4.07;;;1.33;;
19280;SDS011;9774;52.034;5.342;2022-11-23T07:53:29;5.40;;;1.17;;
19280;SDS011;9774;52.034;5.342;2022-11-23T07:55:57;7.28;;;1.67;;
19280;SDS011;9774;52.034;5.342;2022-11-23T07:58:24;4.78;;;1.17;;
19280;SDS011;9774;52.034;5.342;2022-11-23T08:00:51;6.13;;;1.65;;
19280;SDS011;9774;52.034;5.342;2022-11-23T08:03:18;7.22;;;1.33;;
19280;SDS011;9774;52.034;5.342;2022-11-23T08:05:46;5.63;;;1.60;;
19280;SDS011;9774;52.034;5.342;2022-11-23T08:08:15;7.57;;;1.88;;
19280;SDS011;9774;52.034;5.342;2022-11-23T08:10:42;3.22;;;1.05;;
19280;SDS011;9774;52.034;5.342;2022-11-23T08:13:09;6.85;;;1.77;;
19280;SDS011;9774;52.034;5.342;2022-11-23T08:15:37;8.88;;;1.58;;
19280;SDS011;9774;52.034;5.342;2022-11-23T08:18:04;8.55;;;1.42;;
19280;SDS011;9774;52.034;5.342;2022-11-23T08:20:31;5.18;;;0.98;;
19280;SDS011;9774;52.034;5.342;2022-11-23T08:22:59;3.67;;;1.52;;
19280;SDS011;9774;52.034;5.342;2022-11-23T08:25:27;3.95;;;0.68;;
19280;SDS011;9774;52.034;5.342;2022-11-23T08:27:55;5.60;;;1.90;;
19280;SDS011;9774;52.034;5.342;2022-11-23T08:30:24;4.88;;;0.98;;
19280;SDS011;9774;52.034;5.342;2022-11-23T08:32:51;8.48;;;1.88;;
19280;SDS011;9774;52.034;5.342;2022-11-23T08:35:19;3.88;;;0.80;;
19280;SDS011;9774;52.034;5.342;2022-11-23T08:37:46;6.82;;;1.50;;
19280;SDS011;9774;52.034;5.342;2022-11-23T08:40:14;7.07;;;1.20;;
19280;SDS011;9774;52.034;5.342;2022-11-23T08:42:42;8.15;;;1.67;;
19280;SDS011;9774;52.034;5.342;2022-11-23T08:45:11;4.47;;;0.98;;
19280;SDS011;9774;52.034;5.342;2022-11-23T08:47:38;4.97;;;1.45;;
19280;SDS011;9774;52.034;5.342;2022-11-23T08:50:06;4.45;;;1.10;;
19280;SDS011;9774;52.034;5.342;2022-11-23T08:52:34;1.92;;;0.85;;
19280;SDS011;9774;52.034;5.342;2022-11-23T08:55:01;6.20;;;1.20;;
19280;SDS011;9774;52.034;5.342;2022-11-23T08:57:28;7.53;;;1.73;;
19280;SDS011;9774;52.034;5.342;2022-11-23T08:59:57;4.20;;;1.40;;
19280;SDS011;9774;52.034;5.342;2022-11-23T09:02:25;5.97;;;1.33;;
19280;SDS011;9774;52.034;5.342;2022-11-23T09:04:53;4.88;;;1.73;;
19280;SDS011;9774;52.034;5.342;2022-11-23T09:07:20;6.35;;;1.17;;
19280;SDS011;9774;52.034;5.342;2022-11-23T09:09:47;1.90;;;0.77;;
19280;SDS011;9774;52.034;5.342;2022-11-23T09:12:15;4.47;;;1.23;;
19280;SDS011;9774;52.034;5.342;2022-11-23T09:14:42;3.80;;;1.02;;
19280;SDS011;9774;52.034;5.342;2022-11-23T09:17:10;5.40;;;1.33;;
19280;SDS011;9774;52.034;5.342;2022-11-23T09:19:38;5.65;;;1.02;;
19280;SDS011;9774;52.034;5.342;2022-11-23T09:22:05;5.72;;;1.10;;
19280;SDS011;9774;52.034;5.342;2022-11-23T09:24:33;3.92;;;1.10;;
19280;SDS011;9774;52.034;5.342;2022-11-23T09:27:00;5.30;;;1.35;;
19280;SDS011;9774;52.034;5.342;2022-11-23T09:29:27;6.05;;;1.20;;
19280;SDS011;9774;52.034;5.342;2022-11-23T09:31:54;8.13;;;1.00;;
19280;SDS011;9774;52.034;5.342;2022-11-23T09:34:23;7.95;;;1.13;;
19280;SDS011;9774;52.034;5.342;2022-11-23T09:36:51;8.18;;;1.40;;
19280;SDS011;9774;52.034;5.342;2022-11-23T09:39:20;6.80;;;1.23;;
19280;SDS011;9774;52.034;5.342;2022-11-23T09:41:52;3.80;;;1.00;;
19280;SDS011;9774;52.034;5.342;2022-11-23T09:45:03;5.28;;;1.88;;
19280;SDS011;9774;52.034;5.342;2022-11-23T09:47:51;3.83;;;1.10;;
19280;SDS011;9774;52.034;5.342;2022-11-23T09:50:38;3.25;;;0.95;;
19280;SDS011;9774;52.034;5.342;2022-11-23T09:53:12;7.70;;;1.05;;
19280;SDS011;9774;52.034;5.342;2022-11-23T09:55:43;10.38;;;1.33;;
19280;SDS011;9774;52.034;5.342;2022-11-23T09:58:14;4.70;;;1.48;;
19280;SDS011;9774;52.034;5.342;2022-11-23T10:00:45;3.42;;;1.27;;
19280;SDS011;9774;52.034;5.342;2022-11-23T10:03:16;7.43;;;1.30;;
19280;SDS011;9774;52.034;5.342;2022-11-23T10:05:46;3.10;;;1.15;;
19280;SDS011;9774;52.034;5.342;2022-11-23T10:08:25;5.10;;;1.52;;
19280;SDS011;9774;52.034;5.342;2022-11-23T10:11:06;8.25;;;1.42;;
19280;SDS011;9774;52.034;5.342;2022-11-23T10:13:59;3.95;;;1.00;;
19280;SDS011;9774;52.034;5.342;2022-11-23T10:16:38;8.02;;;1.50;;
19280;SDS011;9774;52.034;5.342;2022-11-23T10:19:14;5.15;;;1.27;;
19280;SDS011;9774;52.034;5.342;2022-11-23T10:21:51;4.40;;;0.85;;
19280;SDS011;9774;52.034;5.342;2022-11-23T10:24:26;3.58;;;1.10;;
19280;SDS011;9774;52.034;5.342;2022-11-23T10:26:57;9.75;;;1.52;;
19280;SDS011;9774;52.034;5.342;2022-11-23T10:29:27;2.67;;;0.98;;
19280;SDS011;9774;52.034;5.342;2022-11-23T10:31:57;2.70;;;0.98;;
19280;SDS011;9774;52.034;5.342;2022-11-23T10:34:29;4.30;;;1.13;;
19280;SDS011;9774;52.034;5.342;2022-11-23T10:37:13;3.30;;;1.33;;
19280;SDS011;9774;52.034;5.342;2022-11-23T10:39:42;5.07;;;1.83;;
19280;SDS011;9774;52.034;5.342;2022-11-23T10:42:13;5.07;;;0.90;;
19280;SDS011;9774;52.034;5.342;2022-11-23T10:44:46;4.35;;;0.75;;
19280;SDS011;9774;52.034;5.342;2022-11-23T10:49:59;5.30;;;1.20;;
19280;SDS011;9774;52.034;5.342;2022-11-23T10:52:28;7.28;;;1.42;;
19280;SDS011;9774;52.034;5.342;2022-11-23T10:54:57;4.07;;;1.33;;
19280;SDS011;9774;52.034;5.342;2022-11-23T10:57:29;5.32;;;1.23;;
19280;SDS011;9774;52.034;5.342;2022-11-23T10:59:59;3.20;;;0.90;;
19280;SDS011;9774;52.034;5.342;2022-11-23T11:02:27;3.40;;;1.13;;
19280;SDS011;9774;52.034;5.342;2022-11-23T11:05:14;5.18;;;1.02;;
19280;SDS011;9774;52.034;5.342;2022-11-23T11:07:52;5.82;;;1.00;;
19280;SDS011;9774;52.034;5.342;2022-11-23T11:10:34;4.80;;;1.10;;
19280;SDS011;9774;52.034;5.342;2022-11-23T11:13:08;3.30;;;0.85;;
19280;SDS011;9774;52.034;5.342;2022-11-23T11:15:57;3.65;;;0.93;;
19280;SDS011;9774;52.034;5.342;2022-11-23T11:18:27;2.17;;;0.80;;
19280;SDS011;9774;52.034;5.342;2022-11-23T11:21:00;4.40;;;0.95;;
19280;SDS011;9774;52.034;5.342;2022-11-23T11:23:31;4.75;;;1.23;;
19280;SDS011;9774;52.034;5.342;2022-11-23T11:26:05;7.80;;;1.80;;
19280;SDS011;9774;52.034;5.342;2022-11-23T11:28:46;7.70;;;1.35;;
19280;SDS011;9774;52.034;5.342;2022-11-23T11:31:22;7.55;;;1.45;;
19280;SDS011;9774;52.034;5.342;2022-11-23T11:33:57;2.50;;;1.20;;
19280;SDS011;9774;52.034;5.342;2022-11-23T11:36:30;4.18;;;0.90;;
19280;SDS011;9774;52.034;5.342;2022-11-23T11:39:05;4.63;;;1.33;;
19280;SDS011;9774;52.034;5.342;2022-11-23T11:41:39;4.65;;;1.08;;
19280;SDS011;9774;52.034;5.342;2022-11-23T11:44:12;3.40;;;1.65;;
19280;SDS011;9774;52.034;5.342;2022-11-23T11:46:44;5.85;;;1.25;;
19280;SDS011;9774;52.034;5.342;2022-11-23T11:49:17;6.13;;;1.65;;
19280;SDS011;9774;52.034;5.342;2022-11-23T11:51:48;3.75;;;1.30;;
19280;SDS011;9774;52.034;5.342;2022-11-23T11:54:22;4.82;;;1.08;;
19280;SDS011;9774;52.034;5.342;2022-11-23T11:56:56;3.92;;;1.13;;
19280;SDS011;9774;52.034;5.342;2022-11-23T11:59:30;6.05;;;1.20;;
19280;SDS011;9774;52.034;5.342;2022-11-23T12:02:11;3.03;;;0.90;;
19280;SDS011;9774;52.034;5.342;2022-11-23T12:04:47;3.13;;;0.95;;
19280;SDS011;9774;52.034;5.342;2022-11-23T12:07:27;4.55;;;0.75;;
19280;SDS011;9774;52.034;5.342;2022-11-23T12:09:59;4.63;;;1.05;;
19280;SDS011;9774;52.034;5.342;2022-11-23T12:12:35;3.10;;;0.70;;
19280;SDS011;9774;52.034;5.342;2022-11-23T12:15:03;4.47;;;0.93;;
19280;SDS011;9774;52.034;5.342;2022-11-23T12:17:35;1.40;;;0.43;;
19280;SDS011;9774;52.034;5.342;2022-11-23T12:20:14;1.75;;;0.63;;
19280;SDS011;9774;52.034;5.342;2022-11-23T12:22:51;3.85;;;0.68;;
19280;SDS011;9774;52.034;5.342;2022-11-23T12:25:32;4.22;;;1.00;;
19280;SDS011;9774;52.034;5.342;2022-11-23T12:28:06;4.18;;;0.80;;
19280;SDS011;9774;52.034;5.342;2022-11-23T12:30:46;5.10;;;1.02;;
19280;SDS011;9774;52.034;5.342;2022-11-23T12:33:27;3.35;;;0.70;;
19280;SDS011;9774;52.034;5.342;2022-11-23T12:36:05;4.75;;;0.75;;
19280;SDS011;9774;52.034;5.342;2022-11-23T12:38:42;3.50;;;1.13;;
19280;SDS011;9774;52.034;5.342;2022-11-23T12:41:23;4.22;;;0.70;;
19280;SDS011;9774;52.034;5.342;2022-11-23T12:44:11;2.97;;;0.50;;
19280;SDS011;9774;52.034;5.342;2022-11-23T12:47:07;1.15;;;0.50;;
19280;SDS011;9774;52.034;5.342;2022-11-23T12:49:47;2.60;;;0.70;;
19280;SDS011;9774;52.034;5.342;2022-11-23T12:52:25;3.58;;;0.68;;
19280;SDS011;9774;52.034;5.342;2022-11-23T12:55:02;1.35;;;0.55;;
19280;SDS011;9774;52.034;5.342;2022-11-23T12:57:43;1.95;;;0.70;;
19280;SDS011;9774;52.034;5.342;2022-11-23T13:00:14;1.85;;;0.68;;
19280;SDS011;9774;52.034;5.342;2022-11-23T13:05:52;2.55;;;0.68;;
19280;SDS011;9774;52.034;5.342;2022-11-23T13:08:49;3.72;;;0.75;;
19280;SDS011;9774;52.034;5.342;2022-11-23T13:11:40;4.30;;;0.88;;
19280;SDS011;9774;52.034;5.342;2022-11-23T13:14:22;1.95;;;0.47;;
19280;SDS011;9774;52.034;5.342;2022-11-23T13:17:09;2.83;;;0.70;;
19280;SDS011;9774;52.034;5.342;2022-11-23T13:22:43;4.05;;;0.60;;
19280;SDS011;9774;52.034;5.342;2022-11-23T13:25:18;2.95;;;0.68;;
19280;SDS011;9774;52.034;5.342;2022-11-23T13:27:55;2.13;;;0.57;;
19280;SDS011;9774;52.034;5.342;2022-11-23T13:30:26;2.80;;;0.50;;
19280;SDS011;9774;52.034;5.342;2022-11-23T13:33:02;4.43;;;1.02;;
19280;SDS011;9774;52.034;5.342;2022-11-23T13:35:55;3.75;;;0.70;;
19280;SDS011;9774;52.034;5.342;2022-11-23T13:38:35;1.73;;;0.38;;
19280;SDS011;9774;52.034;5.342;2022-11-23T13:41:14;4.00;;;0.60;;
19280;SDS011;9774;52.034;5.342;2022-11-23T13:44:16;2.28;;;0.65;;
19280;SDS011;9774;52.034;5.342;2022-11-23T13:46:56;2.35;;;0.65;;
19280;SDS011;9774;52.034;5.342;2022-11-23T13:49:33;1.85;;;0.70;;
19280;SDS011;9774;52.034;5.342;2022-11-23T13:52:11;1.00;;;0.50;;
19280;SDS011;9774;52.034;5.342;2022-11-23T13:54:57;4.35;;;0.63;;
19280;SDS011;9774;52.034;5.342;2022-11-23T13:57:31;1.73;;;0.50;;
19280;SDS011;9774;52.034;5.342;2022-11-23T14:06:10;1.08;;;0.40;;
19280;SDS011;9774;52.034;5.342;2022-11-23T14:08:44;1.58;;;0.45;;
19280;SDS011;9774;52.034;5.342;2022-11-23T14:11:16;3.05;;;0.50;;
19280;SDS011;9774;52.034;5.342;2022-11-23T14:13:50;2.58;;;0.40;;
19280;SDS011;9774;52.034;5.342;2022-11-23T14:16:25;3.53;;;0.50;;
19280;SDS011;9774;52.034;5.342;2022-11-23T14:19:19;1.13;;;0.50;;
19280;SDS011;9774;52.034;5.342;2022-11-23T14:21:56;2.95;;;0.68;;
19280;SDS011;9774;52.034;5.342;2022-11-23T14:24:40;3.10;;;0.88;;
19280;SDS011;9774;52.034;5.342;2022-11-23T14:27:25;0.82;;;0.32;;
19280;SDS011;9774;52.034;5.342;2022-11-23T14:30:02;2.92;;;0.55;;
19280;SDS011;9774;52.034;5.342;2022-11-23T14:32:41;2.35;;;0.40;;
19280;SDS011;9774;52.034;5.342;2022-11-23T14:35:23;3.50;;;0.50;;
19280;SDS011;9774;52.034;5.342;2022-11-23T14:38:02;3.45;;;0.40;;
19280;SDS011;9774;52.034;5.342;2022-11-23T14:41:00;3.08;;;0.93;;
19280;SDS011;9774;52.034;5.342;2022-11-23T14:43:32;2.10;;;0.50;;
19280;SDS011;9774;52.034;5.342;2022-11-23T14:46:01;3.67;;;0.82;;
19280;SDS011;9774;52.034;5.342;2022-11-23T14:48:31;1.58;;;0.50;;
19280;SDS011;9774;52.034;5.342;2022-11-23T14:51:00;4.47;;;0.88;;
19280;SDS011;9774;52.034;5.342;2022-11-23T14:53:32;1.08;;;0.47;;
19280;SDS011;9774;52.034;5.342;2022-11-23T14:56:05;1.80;;;0.63;;
19280;SDS011;9774;52.034;5.342;2022-11-23T14:58:43;1.73;;;0.40;;
19280;SDS011;9774;52.034;5.342;2022-11-23T15:01:12;1.95;;;0.73;;
19280;SDS011;9774;52.034;5.342;2022-11-23T15:03:53;1.35;;;0.40;;
19280;SDS011;9774;52.034;5.342;2022-11-23T15:06:23;2.03;;;0.50;;
19280;SDS011;9774;52.034;5.342;2022-11-23T15:09:03;1.23;;;0.35;;
19280;SDS011;9774;52.034;5.342;2022-11-23T15:11:37;2.20;;;0.63;;
19280;SDS011;9774;52.034;5.342;2022-11-23T15:14:15;1.33;;;0.47;;
19280;SDS011;9774;52.034;5.342;2022-11-23T15:16:44;3.45;;;0.82;;
19280;SDS011;9774;52.034;5.342;2022-11-23T15:19:23;0.70;;;0.43;;
19280;SDS011;9774;52.034;5.342;2022-11-23T15:21:53;2.38;;;0.57;;
19280;SDS011;9774;52.034;5.342;2022-11-23T15:24:22;1.35;;;0.65;;
19280;SDS011;9774;52.034;5.342;2022-11-23T15:26:51;2.95;;;0.93;;
19280;SDS011;9774;52.034;5.342;2022-11-23T15:29:28;3.13;;;0.60;;
19280;SDS011;9774;52.034;5.342;2022-11-23T15:31:57;2.17;;;0.38;;
19280;SDS011;9774;52.034;5.342;2022-11-23T15:34:24;1.17;;;0.63;;
19280;SDS011;9774;52.034;5.342;2022-11-23T15:36:51;1.45;;;0.40;;
19280;SDS011;9774;52.034;5.342;2022-11-23T15:39:20;2.28;;;0.40;;